ESKM Airport Information

Runway Information
Runway 16 Length 5951 ft width 148 ft
Elevation 631 ft Threshold ft Heading 161
Runway 34 Length 5951 ft Width 148 ft
Elevation 617 ft Threshold ft Heading 341
Airport Frequencies
Type AFIS Name AFIS Frequency 129.85 MHZ
Airport Navaids
Type NDB Name N Mora Frequency 403 KHZ
Airport Weather Information & NOTAM
ADDS - METARS form results

(2309 UTC 04 December 2022)
Data provider http://aviationweather.gov/metar/data/
 
METAR text: ESKM 042250Z AUTO 27004KT 9999 NCD M12/M13 Q1034
Conditions at: ESKM (SILJAN/MORA , SE) observed 2250 UTC 04 December 2022
Temperature: -12.0°C (10°F)
Dewpoint: -13.0°C ( 9°F) [RH = 92%]
Pressure (altimeter): 30.53 inches Hg (1034.0 mb)
Winds: from the W (270 degrees) at 5 MPH (4 knots; 2.1 m/s)
Visibility: 6 or more miles (10+ km)
Ceiling: at least 12,000 feet AGL
Clouds: sky clear below 12,000 feet AGL
Weather: no significant weather observed at this time

METAR text: ESKM 042220Z AUTO 26004KT 9999 NCD M12/M13 Q1034
Conditions at: ESKM (SILJAN/MORA , SE) observed 2220 UTC 04 December 2022
Temperature: -12.0°C (10°F)
Dewpoint: -13.0°C ( 9°F) [RH = 92%]
Pressure (altimeter): 30.53 inches Hg (1034.0 mb)
Winds: from the W (260 degrees) at 5 MPH (4 knots; 2.1 m/s)
Visibility: 6 or more miles (10+ km)
Ceiling: at least 12,000 feet AGL
Clouds: sky clear below 12,000 feet AGL
Weather: no significant weather observed at this time